sensor_id;sensor_type;location;lat;lon;timestamp;pressure;altitude;pressure_sealevel;temperature;humidity
79589;BME280;69067;51.930;4.492;2023-08-30T00:00:57;100786.00;;;26.31;37.66
79589;BME280;69067;51.930;4.492;2023-08-30T00:03:23;100775.56;;;26.27;37.00
79589;BME280;69067;51.930;4.492;2023-08-30T00:05:48;100782.44;;;26.30;37.44
79589;BME280;69067;51.930;4.492;2023-08-30T00:08:14;100784.94;;;26.32;37.27
79589;BME280;69067;51.930;4.492;2023-08-30T00:10:44;100786.00;;;26.31;37.47
79589;BME280;69067;51.930;4.492;2023-08-30T00:13:10;100783.88;;;26.33;37.12
79589;BME280;69067;51.930;4.492;2023-08-30T00:15:36;100775.09;;;26.31;37.47
79589;BME280;69067;51.930;4.492;2023-08-30T00:18:02;100774.03;;;26.32;37.43
79589;BME280;69067;51.930;4.492;2023-08-30T00:20:29;100760.81;;;26.28;37.09
79589;BME280;69067;51.930;4.492;2023-08-30T00:22:55;100761.44;;;26.31;37.21
79589;BME280;69067;51.930;4.492;2023-08-30T00:25:20;100750.38;;;26.25;37.63
79589;BME280;69067;51.930;4.492;2023-08-30T00:27:46;100763.09;;;26.32;37.55
79589;BME280;69067;51.930;4.492;2023-08-30T00:30:12;100760.81;;;26.28;37.69
79589;BME280;69067;51.930;4.492;2023-08-30T00:32:38;100755.75;;;26.32;37.81
79589;BME280;69067;51.930;4.492;2023-08-30T00:35:04;100744.44;;;26.28;37.48
79589;BME280;69067;51.930;4.492;2023-08-30T00:37:30;100746.50;;;26.33;37.36
79589;BME280;69067;51.930;4.492;2023-08-30T00:39:56;100751.97;;;26.33;37.80
79589;BME280;69067;51.930;4.492;2023-08-30T00:42:22;100750.75;;;26.29;37.62
79589;BME280;69067;51.930;4.492;2023-08-30T00:44:48;100750.06;;;26.34;37.83
79589;BME280;69067;51.930;4.492;2023-08-30T00:47:14;100746.72;;;26.32;37.81
79589;BME280;69067;51.930;4.492;2023-08-30T00:49:40;100741.25;;;26.32;37.79
79589;BME280;69067;51.930;4.492;2023-08-30T00:52:09;100742.72;;;26.34;37.58
79589;BME280;69067;51.930;4.492;2023-08-30T00:54:36;100744.63;;;26.34;37.63
79589;BME280;69067;51.930;4.492;2023-08-30T00:57:02;100742.09;;;26.32;37.66
79589;BME280;69067;51.930;4.492;2023-08-30T00:59:32;100736.41;;;26.34;37.78
79589;BME280;69067;51.930;4.492;2023-08-30T01:01:59;100741.03;;;26.33;37.34
79589;BME280;69067;51.930;4.492;2023-08-30T01:04:27;100732.25;;;26.31;37.82
79589;BME280;69067;51.930;4.492;2023-08-30T01:06:53;100726.56;;;26.33;37.56
79589;BME280;69067;51.930;4.492;2023-08-30T01:09:19;100722.59;;;26.28;37.23
79589;BME280;69067;51.930;4.492;2023-08-30T01:14:51;100727.41;;;26.33;37.35
79589;BME280;69067;51.930;4.492;2023-08-30T01:17:22;100722.16;;;26.32;37.65
79589;BME280;69067;51.930;4.492;2023-08-30T01:20:01;100716.09;;;26.30;37.17
79589;BME280;69067;51.930;4.492;2023-08-30T01:23:05;100720.88;;;26.34;38.17
79589;BME280;69067;51.930;4.492;2023-08-30T01:25:55;100712.53;;;26.29;37.20
79589;BME280;69067;51.930;4.492;2023-08-30T01:28:31;100709.56;;;26.31;37.81
79589;BME280;69067;51.930;4.492;2023-08-30T01:30:59;100716.09;;;26.30;37.36
79589;BME280;69067;51.930;4.492;2023-08-30T01:33:26;100716.91;;;26.30;37.79
79589;BME280;69067;51.930;4.492;2023-08-30T01:35:57;100716.69;;;26.32;37.40
79589;BME280;69067;51.930;4.492;2023-08-30T01:38:26;100716.56;;;26.26;37.74
79589;BME280;69067;51.930;4.492;2023-08-30T01:40:55;100713.84;;;26.26;37.08
79589;BME280;69067;51.930;4.492;2023-08-30T01:43:25;100712.28;;;26.31;37.89
79589;BME280;69067;51.930;4.492;2023-08-30T01:45:52;100710.41;;;26.31;37.48
79589;BME280;69067;51.930;4.492;2023-08-30T01:48:20;100708.88;;;26.35;38.02
79589;BME280;69067;51.930;4.492;2023-08-30T01:50:46;100711.47;;;26.30;37.72
79589;BME280;69067;51.930;4.492;2023-08-30T01:53:13;100702.44;;;26.30;37.67
79589;BME280;69067;51.930;4.492;2023-08-30T01:55:40;100699.72;;;26.30;37.66
79589;BME280;69067;51.930;4.492;2023-08-30T01:58:08;100702.44;;;26.30;37.70
79589;BME280;69067;51.930;4.492;2023-08-30T02:00:38;100693.66;;;26.27;38.18
79589;BME280;69067;51.930;4.492;2023-08-30T02:03:12;100688.66;;;26.24;38.24
79589;BME280;69067;51.930;4.492;2023-08-30T02:05:56;100696.97;;;26.30;37.76
79589;BME280;69067;51.930;4.492;2023-08-30T02:08:37;100696.75;;;26.31;37.80
79589;BME280;69067;51.930;4.492;2023-08-30T02:11:13;100676.44;;;26.27;38.12
79589;BME280;69067;51.930;4.492;2023-08-30T02:13:43;100689.63;;;26.30;38.07
79589;BME280;69067;51.930;4.492;2023-08-30T02:16:13;100683.09;;;26.31;38.79
79589;BME280;69067;51.930;4.492;2023-08-30T02:18:39;100678.47;;;26.32;38.04
79589;BME280;69067;51.930;4.492;2023-08-30T02:21:06;100677.63;;;26.31;37.72
79589;BME280;69067;51.930;4.492;2023-08-30T02:23:31;100679.31;;;26.32;37.89
79589;BME280;69067;51.930;4.492;2023-08-30T02:25:57;100672.19;;;26.31;38.58
79589;BME280;69067;51.930;4.492;2023-08-30T02:28:23;100673.00;;;26.32;38.26
79589;BME280;69067;51.930;4.492;2023-08-30T02:30:52;100678.47;;;26.32;38.34
79589;BME280;69067;51.930;4.492;2023-08-30T02:33:18;100676.19;;;26.28;38.07
79589;BME280;69067;51.930;4.492;2023-08-30T02:35:44;100669.69;;;26.30;38.37
79589;BME280;69067;51.930;4.492;2023-08-30T02:38:10;100676.34;;;26.34;38.44
79589;BME280;69067;51.930;4.492;2023-08-30T02:40:36;100668.41;;;26.32;37.67
79589;BME280;69067;51.930;4.492;2023-08-30T02:43:02;100669.22;;;26.33;38.09
79589;BME280;69067;51.930;4.492;2023-08-30T02:45:28;100664.59;;;26.33;37.91
79589;BME280;69067;51.930;4.492;2023-08-30T02:47:57;100663.78;;;26.33;37.65
79589;BME280;69067;51.930;4.492;2023-08-30T02:50:24;100646.16;;;26.28;38.31
79589;BME280;69067;51.930;4.492;2023-08-30T02:52:50;100635.03;;;26.30;38.67
79589;BME280;69067;51.930;4.492;2023-08-30T02:55:17;100639.66;;;26.30;38.02
79589;BME280;69067;51.930;4.492;2023-08-30T02:57:43;100619.34;;;26.25;37.96
79589;BME280;69067;51.930;4.492;2023-08-30T03:00:09;100628.72;;;26.30;38.15
79589;BME280;69067;51.930;4.492;2023-08-30T03:02:35;100618.66;;;26.30;38.35
79589;BME280;69067;51.930;4.492;2023-08-30T03:05:01;100618.88;;;26.28;38.19
79589;BME280;69067;51.930;4.492;2023-08-30T03:07:29;100611.50;;;26.29;38.15
79589;BME280;69067;51.930;4.492;2023-08-30T03:09:56;100607.38;;;26.26;38.02
79589;BME280;69067;51.930;4.492;2023-08-30T03:12:22;100605.00;;;26.30;38.58
79589;BME280;69067;51.930;4.492;2023-08-30T03:14:48;100597.03;;;26.28;38.67
79589;BME280;69067;51.930;4.492;2023-08-30T03:17:14;100586.19;;;26.22;38.03
79589;BME280;69067;51.930;4.492;2023-08-30T03:19:40;100597.03;;;26.28;38.80
79589;BME280;69067;51.930;4.492;2023-08-30T03:22:05;100598.69;;;26.30;38.23
79589;BME280;69067;51.930;4.492;2023-08-30T03:24:31;100588.69;;;26.23;38.33
79589;BME280;69067;51.930;4.492;2023-08-30T03:26:57;100593.25;;;26.30;38.00
79589;BME280;69067;51.930;4.492;2023-08-30T03:29:23;100586.38;;;26.27;38.20
79589;BME280;69067;51.930;4.492;2023-08-30T03:31:48;100581.47;;;26.29;38.54
79589;BME280;69067;51.930;4.492;2023-08-30T03:34:14;100580.06;;;26.26;38.12
79589;BME280;69067;51.930;4.492;2023-08-30T03:36:40;100578.19;;;26.27;38.56
79589;BME280;69067;51.930;4.492;2023-08-30T03:39:09;100580.06;;;26.26;38.27
79589;BME280;69067;51.930;4.492;2023-08-30T03:41:35;100564.13;;;26.23;38.11
79589;BME280;69067;51.930;4.492;2023-08-30T03:44:01;100561.88;;;26.20;38.14
79589;BME280;69067;51.930;4.492;2023-08-30T03:46:27;100582.81;;;26.26;38.50
79589;BME280;69067;51.930;4.492;2023-08-30T03:48:52;100573.69;;;26.33;38.24
79589;BME280;69067;51.930;4.492;2023-08-30T03:51:18;100570.00;;;26.27;37.66
79589;BME280;69067;51.930;4.492;2023-08-30T03:53:44;100556.16;;;26.22;38.43
79589;BME280;69067;51.930;4.492;2023-08-30T03:56:10;100566.41;;;26.26;38.10
79589;BME280;69067;51.930;4.492;2023-08-30T03:58:36;100551.53;;;26.22;37.80
79589;BME280;69067;51.930;4.492;2023-08-30T04:01:03;100563.69;;;26.26;38.33
79589;BME280;69067;51.930;4.492;2023-08-30T04:03:28;100554.03;;;26.24;37.87
79589;BME280;69067;51.930;4.492;2023-08-30T04:05:55;100554.44;;;26.27;37.75
79589;BME280;69067;51.930;4.492;2023-08-30T04:08:22;100547.75;;;26.23;38.51
79589;BME280;69067;51.930;4.492;2023-08-30T04:10:48;100551.09;;;26.25;37.74
79589;BME280;69067;51.930;4.492;2023-08-30T04:13:14;100549.44;;;26.24;38.17
79589;BME280;69067;51.930;4.492;2023-08-30T04:15:40;100548.38;;;26.25;37.38
79589;BME280;69067;51.930;4.492;2023-08-30T04:18:06;100542.09;;;26.25;38.10
79589;BME280;69067;51.930;4.492;2023-08-30T04:20:33;100546.47;;;26.26;37.61
79589;BME280;69067;51.930;4.492;2023-08-30T04:23:00;100541.25;;;26.24;37.80
79589;BME280;69067;51.930;4.492;2023-08-30T04:25:30;100526.97;;;26.22;37.67
79589;BME280;69067;51.930;4.492;2023-08-30T04:27:56;100522.81;;;26.20;37.87
79589;BME280;69067;51.930;4.492;2023-08-30T04:30:22;100515.22;;;26.22;38.16
79589;BME280;69067;51.930;4.492;2023-08-30T04:32:48;100524.22;;;26.22;38.38
79589;BME280;69067;51.930;4.492;2023-08-30T04:35:14;100507.34;;;26.14;38.27
79589;BME280;69067;51.930;4.492;2023-08-30T04:37:40;100514.84;;;26.18;38.00
79589;BME280;69067;51.930;4.492;2023-08-30T04:40:06;100522.56;;;26.21;37.50
79589;BME280;69067;51.930;4.492;2023-08-30T04:42:36;100517.38;;;26.20;38.69
79589;BME280;69067;51.930;4.492;2023-08-30T04:45:03;100525.56;;;26.20;38.55
79589;BME280;69067;51.930;4.492;2023-08-30T04:47:30;100520.31;;;26.18;38.02
79589;BME280;69067;51.930;4.492;2023-08-30T04:49:57;100529.91;;;26.21;38.33
79589;BME280;69067;51.930;4.492;2023-08-30T04:52:22;100536.47;;;26.20;38.09
79589;BME280;69067;51.930;4.492;2023-08-30T04:54:49;100547.97;;;26.22;38.24
79589;BME280;69067;51.930;4.492;2023-08-30T04:57:15;100542.16;;;26.18;37.88
79589;BME280;69067;51.930;4.492;2023-08-30T04:59:42;100554.75;;;26.19;38.14
79589;BME280;69067;51.930;4.492;2023-08-30T05:02:08;100552.84;;;26.20;38.57
79589;BME280;69067;51.930;4.492;2023-08-30T05:04:34;100547.63;;;26.18;38.33
79589;BME280;69067;51.930;4.492;2023-08-30T05:07:00;100549.28;;;26.19;38.33
79589;BME280;69067;51.930;4.492;2023-08-30T05:09:26;100546.41;;;26.14;38.37
79589;BME280;69067;51.930;4.492;2023-08-30T05:11:52;100539.66;;;26.17;37.58
79589;BME280;69067;51.930;4.492;2023-08-30T05:14:19;100542.16;;;26.18;38.34
79589;BME280;69067;51.930;4.492;2023-08-30T05:16:46;100535.63;;;26.19;37.88
79589;BME280;69067;51.930;4.492;2023-08-30T05:19:11;100536.69;;;26.18;37.93
79589;BME280;69067;51.930;4.492;2023-08-30T05:21:37;100531.22;;;26.18;38.68
79589;BME280;69067;51.930;4.492;2023-08-30T05:24:04;100523.03;;;26.18;37.73
79589;BME280;69067;51.930;4.492;2023-08-30T05:26:33;100521.38;;;26.17;37.90
79589;BME280;69067;51.930;4.492;2023-08-30T05:28:58;100520.31;;;26.18;38.18
79589;BME280;69067;51.930;4.492;2023-08-30T05:31:24;100508.19;;;26.14;38.49
79589;BME280;69067;51.930;4.492;2023-08-30T05:33:50;100502.28;;;26.17;37.73
79589;BME280;69067;51.930;4.492;2023-08-30T05:36:17;100497.53;;;26.13;38.48
79589;BME280;69067;51.930;4.492;2023-08-30T05:38:42;100506.06;;;26.16;38.08
79589;BME280;69067;51.930;4.492;2023-08-30T05:41:08;100502.72;;;26.14;37.94
79589;BME280;69067;51.930;4.492;2023-08-30T05:43:34;100503.34;;;26.16;38.63
79589;BME280;69067;51.930;4.492;2023-08-30T05:46:00;100501.44;;;26.17;38.16
79589;BME280;69067;51.930;4.492;2023-08-30T05:48:29;100495.16;;;26.16;38.61
79589;BME280;69067;51.930;4.492;2023-08-30T05:50:55;100482.56;;;26.15;38.73
79589;BME280;69067;51.930;4.492;2023-08-30T05:53:22;100485.28;;;26.15;38.78
79589;BME280;69067;51.930;4.492;2023-08-30T05:55:48;100486.34;;;26.14;38.25
79589;BME280;69067;51.930;4.492;2023-08-30T05:58:15;100477.09;;;26.15;38.31
79589;BME280;69067;51.930;4.492;2023-08-30T06:00:41;100482.56;;;26.15;38.47
79589;BME280;69067;51.930;4.492;2023-08-30T06:03:07;100475.44;;;26.14;39.25
79589;BME280;69067;51.930;4.492;2023-08-30T06:05:34;100479.00;;;26.15;38.79
79589;BME280;69067;51.930;4.492;2023-08-30T06:08:00;100474.25;;;26.10;39.38
79589;BME280;69067;51.930;4.492;2023-08-30T06:10:26;100488.84;;;26.16;38.96
79589;BME280;69067;51.930;4.492;2023-08-30T06:12:53;100485.28;;;26.15;39.01
79589;BME280;69067;51.930;4.492;2023-08-30T06:15:19;100486.13;;;26.16;39.13
79589;BME280;69067;51.930;4.492;2023-08-30T06:17:45;100478.66;;;26.11;39.40
79589;BME280;69067;51.930;4.492;2023-08-30T06:20:12;100475.44;;;26.14;39.17
79589;BME280;69067;51.930;4.492;2023-08-30T06:22:38;100469.97;;;26.14;39.11
79589;BME280;69067;51.930;4.492;2023-08-30T06:25:05;100476.88;;;26.17;39.07
79589;BME280;69067;51.930;4.492;2023-08-30T06:27:32;100472.13;;;26.12;38.71
79589;BME280;69067;51.930;4.492;2023-08-30T06:29:58;100471.28;;;26.12;38.62
79589;BME280;69067;51.930;4.492;2023-08-30T06:32:23;100465.22;;;26.10;38.75
79589;BME280;69067;51.930;4.492;2023-08-30T06:34:49;100458.59;;;26.17;38.51
79589;BME280;69067;51.930;4.492;2023-08-30T06:37:15;100470.34;;;26.18;39.26
79589;BME280;69067;51.930;4.492;2023-08-30T06:39:42;100449.69;;;26.10;39.00
79589;BME280;69067;51.930;4.492;2023-08-30T06:42:08;100443.19;;;26.11;38.95
79589;BME280;69067;51.930;4.492;2023-08-30T06:44:34;100456.34;;;26.14;38.87
79589;BME280;69067;51.930;4.492;2023-08-30T06:46:59;100451.47;;;26.16;38.72
79589;BME280;69067;51.930;4.492;2023-08-30T06:49:25;100444.34;;;26.15;39.18
79589;BME280;69067;51.930;4.492;2023-08-30T06:51:51;100440.78;;;26.15;38.96
79589;BME280;69067;51.930;4.492;2023-08-30T06:54:17;100440.78;;;26.15;39.25
79589;BME280;69067;51.930;4.492;2023-08-30T06:56:57;100434.38;;;26.09;38.71
79589;BME280;69067;51.930;4.492;2023-08-30T06:59:24;100436.41;;;26.14;38.96
79589;BME280;69067;51.930;4.492;2023-08-30T07:01:50;100423.69;;;26.08;38.94
79589;BME280;69067;51.930;4.492;2023-08-30T07:04:15;100430.94;;;26.14;39.04
79589;BME280;69067;51.930;4.492;2023-08-30T07:06:41;100426.56;;;26.13;39.98
79589;BME280;69067;51.930;4.492;2023-08-30T07:09:07;100422.19;;;26.12;38.69
79589;BME280;69067;51.930;4.492;2023-08-30T07:11:34;100420.72;;;26.09;38.78
79589;BME280;69067;51.930;4.492;2023-08-30T07:14:00;100413.03;;;26.06;39.42
79589;BME280;69067;51.930;4.492;2023-08-30T07:16:26;100412.56;;;26.09;39.01
79589;BME280;69067;51.930;4.492;2023-08-30T07:18:51;100409.81;;;26.09;39.47
79589;BME280;69067;51.930;4.492;2023-08-30T07:21:17;100400.47;;;26.05;39.51
79589;BME280;69067;51.930;4.492;2023-08-30T07:23:43;100407.09;;;26.09;39.33
79589;BME280;69067;51.930;4.492;2023-08-30T07:26:09;100412.56;;;26.09;39.29
79589;BME280;69067;51.930;4.492;2023-08-30T07:28:35;100402.97;;;26.07;39.08
79589;BME280;69067;51.930;4.492;2023-08-30T07:31:04;100404.25;;;26.04;39.79
79589;BME280;69067;51.930;4.492;2023-08-30T07:33:31;100399.84;;;26.03;39.36
79589;BME280;69067;51.930;4.492;2023-08-30T07:35:57;100388.00;;;25.98;39.25
79589;BME280;69067;51.930;4.492;2023-08-30T07:38:22;100396.78;;;26.00;39.90
79589;BME280;69067;51.930;4.492;2023-08-30T07:40:48;100390.59;;;26.04;39.58
79589;BME280;69067;51.930;4.492;2023-08-30T07:43:14;100395.00;;;26.05;39.27
79589;BME280;69067;51.930;4.492;2023-08-30T07:45:40;100396.19;;;26.09;38.82
79589;BME280;69067;51.930;4.492;2023-08-30T07:48:06;100386.59;;;26.07;39.41
79589;BME280;69067;51.930;4.492;2023-08-30T07:50:32;100384.44;;;26.09;39.18
79589;BME280;69067;51.930;4.492;2023-08-30T07:52:57;100375.28;;;26.03;38.96
79589;BME280;69067;51.930;4.492;2023-08-30T07:55:23;100388.22;;;26.08;39.31
79589;BME280;69067;51.930;4.492;2023-08-30T07:57:49;100380.03;;;26.08;39.49
79589;BME280;69067;51.930;4.492;2023-08-30T08:00:15;100386.59;;;26.07;39.57
79589;BME280;69067;51.930;4.492;2023-08-30T08:02:41;100385.25;;;26.09;39.67
79589;BME280;69067;51.930;4.492;2023-08-30T08:05:07;100382.75;;;26.08;40.56
79589;BME280;69067;51.930;4.492;2023-08-30T08:07:33;100385.16;;;26.04;40.29
79589;BME280;69067;51.930;4.492;2023-08-30T08:09:59;100398.91;;;26.09;40.48
79589;BME280;69067;51.930;4.492;2023-08-30T08:12:26;100395.13;;;26.10;40.71
79589;BME280;69067;51.930;4.492;2023-08-30T08:14:52;100390.38;;;26.06;40.50
79589;BME280;69067;51.930;4.492;2023-08-30T08:17:18;100398.06;;;26.09;40.92
79589;BME280;69067;51.930;4.492;2023-08-30T08:19:44;100383.84;;;26.07;40.91
79589;BME280;69067;51.930;4.492;2023-08-30T08:22:10;100382.75;;;26.08;41.52
79589;BME280;69067;51.930;4.492;2023-08-30T08:24:36;100385.50;;;26.08;40.75
79589;BME280;69067;51.930;4.492;2023-08-30T08:27:02;100388.22;;;26.08;41.00
79589;BME280;69067;51.930;4.492;2023-08-30T08:29:28;100381.59;;;26.04;41.02
79589;BME280;69067;51.930;4.492;2023-08-30T08:31:54;100390.13;;;26.07;41.09
79589;BME280;69067;51.930;4.492;2023-08-30T08:34:20;100381.59;;;26.04;41.09
79589;BME280;69067;51.930;4.492;2023-08-30T08:36:45;100393.69;;;26.08;41.03
79589;BME280;69067;51.930;4.492;2023-08-30T08:39:11;100395.56;;;26.07;41.19
79589;BME280;69067;51.930;4.492;2023-08-30T08:41:44;100390.13;;;26.07;41.68
79589;BME280;69067;51.930;4.492;2023-08-30T08:44:11;100398.31;;;26.07;41.39
79589;BME280;69067;51.930;4.492;2023-08-30T08:46:39;100399.41;;;26.06;41.97
79589;BME280;69067;51.930;4.492;2023-08-30T08:49:12;100400.47;;;26.05;41.18
79589;BME280;69067;51.930;4.492;2023-08-30T08:51:40;100397.72;;;26.05;41.82
79589;BME280;69067;51.930;4.492;2023-08-30T08:54:07;100399.41;;;26.06;41.07
79589;BME280;69067;51.930;4.492;2023-08-30T08:56:35;100405.53;;;26.02;41.58
79589;BME280;69067;51.930;4.492;2023-08-30T08:59:02;100411.47;;;25.99;41.87
79589;BME280;69067;51.930;4.492;2023-08-30T09:01:28;100419.56;;;26.05;41.83
79589;BME280;69067;51.930;4.492;2023-08-30T09:03:54;100412.06;;;26.01;41.60
79589;BME280;69067;51.930;4.492;2023-08-30T09:06:21;100412.88;;;26.01;41.53
79589;BME280;69067;51.930;4.492;2023-08-30T09:08:48;100419.31;;;26.07;41.49
79589;BME280;69067;51.930;4.492;2023-08-30T09:11:14;100424.19;;;26.05;42.03
79589;BME280;69067;51.930;4.492;2023-08-30T09:13:42;100432.97;;;26.07;41.74
79589;BME280;69067;51.930;4.492;2023-08-30T09:16:15;100434.88;;;26.06;41.80
79589;BME280;69067;51.930;4.492;2023-08-30T09:18:42;100439.94;;;26.03;41.57
79589;BME280;69067;51.930;4.492;2023-08-30T09:21:09;100431.53;;;26.04;42.04
79589;BME280;69067;51.930;4.492;2023-08-30T09:23:36;100440.56;;;26.05;41.56
79589;BME280;69067;51.930;4.492;2023-08-30T09:26:03;100441.16;;;26.07;41.62
79589;BME280;69067;51.930;4.492;2023-08-30T09:28:30;100447.41;;;26.07;41.75
79589;BME280;69067;51.930;4.492;2023-08-30T09:30:58;100441.84;;;26.02;41.24
79589;BME280;69067;51.930;4.492;2023-08-30T09:33:33;100446.25;;;26.03;41.69
79589;BME280;69067;51.930;4.492;2023-08-30T09:36:00;100448.97;;;26.03;41.37
79589;BME280;69067;51.930;4.492;2023-08-30T09:38:26;100450.63;;;26.04;40.97
79589;BME280;69067;51.930;4.492;2023-08-30T09:41:03;100447.91;;;26.04;41.01
79589;BME280;69067;51.930;4.492;2023-08-30T09:43:30;100444.56;;;26.02;41.10
79589;BME280;69067;51.930;4.492;2023-08-30T09:45:57;100442.91;;;26.01;40.89
79589;BME280;69067;51.930;4.492;2023-08-30T09:48:28;100447.19;;;25.97;40.14
79589;BME280;69067;51.930;4.492;2023-08-30T09:50:58;100446.13;;;25.98;40.39
79589;BME280;69067;51.930;4.492;2023-08-30T09:53:26;100448.00;;;25.98;40.87
79589;BME280;69067;51.930;4.492;2023-08-30T09:55:54;100449.31;;;25.95;40.67
79589;BME280;69067;51.930;4.492;2023-08-30T09:58:21;100461.88;;;25.96;40.01
79589;BME280;69067;51.930;4.492;2023-08-30T10:00:48;100453.34;;;25.93;40.28
79589;BME280;69067;51.930;4.492;2023-08-30T10:03:15;100472.34;;;25.99;40.04
79589;BME280;69067;51.930;4.492;2023-08-30T10:05:45;100467.81;;;25.93;40.43
79589;BME280;69067;51.930;4.492;2023-08-30T10:08:14;100485.97;;;25.99;40.41
79589;BME280;69067;51.930;4.492;2023-08-30T10:10:39;100486.81;;;26.00;39.79
79589;BME280;69067;51.930;4.492;2023-08-30T10:13:06;100493.06;;;26.00;40.51
79589;BME280;69067;51.930;4.492;2023-08-30T10:15:41;100491.19;;;26.01;40.45
79589;BME280;69067;51.930;4.492;2023-08-30T10:18:15;100477.41;;;25.96;40.41
79589;BME280;69067;51.930;4.492;2023-08-30T10:20:46;100471.03;;;26.02;40.10
79589;BME280;69067;51.930;4.492;2023-08-30T10:23:14;100475.06;;;25.99;40.68
79589;BME280;69067;51.930;4.492;2023-08-30T10:25:44;100465.22;;;25.98;40.23
79589;BME280;69067;51.930;4.492;2023-08-30T10:28:11;100474.59;;;26.02;40.62
79589;BME280;69067;51.930;4.492;2023-08-30T10:30:38;100475.66;;;26.01;40.40
79589;BME280;69067;51.930;4.492;2023-08-30T10:33:12;100480.03;;;26.02;40.13
79589;BME280;69067;51.930;4.492;2023-08-30T10:35:47;100482.78;;;26.02;40.78
79589;BME280;69067;51.930;4.492;2023-08-30T10:38:29;100472.19;;;25.94;40.31
79589;BME280;69067;51.930;4.492;2023-08-30T10:41:06;100479.69;;;25.99;40.56
79589;BME280;69067;51.930;4.492;2023-08-30T10:43:35;100487.88;;;25.99;40.42
79589;BME280;69067;51.930;4.492;2023-08-30T10:46:03;100484.53;;;25.97;40.76
79589;BME280;69067;51.930;4.492;2023-08-30T10:48:39;100491.44;;;25.99;40.58
79589;BME280;69067;51.930;4.492;2023-08-30T10:51:19;100495.22;;;25.98;40.33
79589;BME280;69067;51.930;4.492;2023-08-30T10:53:57;100496.91;;;25.99;40.74
79589;BME280;69067;51.930;4.492;2023-08-30T10:56:30;100496.91;;;25.99;41.01
79589;BME280;69067;51.930;4.492;2023-08-30T10:58:56;100494.38;;;25.98;41.20
79589;BME280;69067;51.930;4.492;2023-08-30T11:01:23;100497.13;;;25.98;40.99
79589;BME280;69067;51.930;4.492;2023-08-30T11:03:49;100504.25;;;25.99;40.44
79589;BME280;69067;51.930;4.492;2023-08-30T11:06:16;100498.78;;;25.99;40.52
79589;BME280;69067;51.930;4.492;2023-08-30T11:08:43;100498.78;;;25.99;40.26
79589;BME280;69067;51.930;4.492;2023-08-30T11:11:10;100510.53;;;25.99;40.43
79589;BME280;69067;51.930;4.492;2023-08-30T11:13:40;100504.25;;;25.99;40.48
79589;BME280;69067;51.930;4.492;2023-08-30T11:16:06;100507.19;;;25.97;39.82
79589;BME280;69067;51.930;4.492;2023-08-30T11:18:37;100514.31;;;25.98;40.04
79589;BME280;69067;51.930;4.492;2023-08-30T11:21:07;100502.06;;;25.89;40.18
79589;BME280;69067;51.930;4.492;2023-08-30T11:23:34;100508.22;;;25.84;39.59
79589;BME280;69067;51.930;4.492;2023-08-30T11:26:00;100509.19;;;25.90;39.40
79589;BME280;69067;51.930;4.492;2023-08-30T11:28:29;100502.78;;;25.84;38.99
79589;BME280;69067;51.930;4.492;2023-08-30T11:30:56;100501.47;;;25.87;38.94
79589;BME280;69067;51.930;4.492;2023-08-30T11:33:22;100500.38;;;25.76;38.87
79589;BME280;69067;51.930;4.492;2023-08-30T11:35:50;100492.41;;;25.75;38.35
79589;BME280;69067;51.930;4.492;2023-08-30T11:38:17;100500.91;;;25.67;37.51
79589;BME280;69067;51.930;4.492;2023-08-30T11:40:45;100508.03;;;25.68;37.76
79589;BME280;69067;51.930;4.492;2023-08-30T11:43:11;100501.38;;;25.64;38.03
79589;BME280;69067;51.930;4.492;2023-08-30T11:45:37;100504.31;;;25.62;37.11
79589;BME280;69067;51.930;4.492;2023-08-30T11:48:03;100505.78;;;25.65;38.00
79589;BME280;69067;51.930;4.492;2023-08-30T11:50:30;100513.13;;;25.64;37.44
79589;BME280;69067;51.930;4.492;2023-08-30T11:52:56;100510.75;;;25.68;38.16
79589;BME280;69067;51.930;4.492;2023-08-30T11:55:23;100515.16;;;25.69;38.05
79589;BME280;69067;51.930;4.492;2023-08-30T11:57:49;100513.69;;;25.66;37.89
79589;BME280;69067;51.930;4.492;2023-08-30T12:00:18;100519.31;;;25.71;37.76
79589;BME280;69067;51.930;4.492;2023-08-30T12:02:46;100519.06;;;25.73;38.13
79589;BME280;69067;51.930;4.492;2023-08-30T12:05:13;100519.84;;;25.62;37.37
79589;BME280;69067;51.930;4.492;2023-08-30T12:07:40;100511.31;;;25.58;37.71
79589;BME280;69067;51.930;4.492;2023-08-30T12:10:06;100518.09;;;25.67;37.77
79589;BME280;69067;51.930;4.492;2023-08-30T12:12:36;100516.22;;;25.68;38.01
79589;BME280;69067;51.930;4.492;2023-08-30T12:15:09;100521.88;;;25.66;37.69
79589;BME280;69067;51.930;4.492;2023-08-30T12:17:35;100512.13;;;25.59;37.34
79589;BME280;69067;51.930;4.492;2023-08-30T12:20:01;100524.69;;;25.60;36.49
79589;BME280;69067;51.930;4.492;2023-08-30T12:22:39;100513.56;;;25.61;36.88
79589;BME280;69067;51.930;4.492;2023-08-30T12:25:18;100518.94;;;25.68;36.75
79589;BME280;69067;51.930;4.492;2023-08-30T12:27:45;100528.91;;;25.74;37.34
79589;BME280;69067;51.930;4.492;2023-08-30T12:30:13;100521.03;;;25.66;37.42
79589;BME280;69067;51.930;4.492;2023-08-30T12:32:40;100539.09;;;25.67;37.33
79589;BME280;69067;51.930;4.492;2023-08-30T12:35:06;100537.94;;;25.56;37.11
79589;BME280;69067;51.930;4.492;2023-08-30T12:37:32;100526.66;;;25.52;37.83
79589;BME280;69067;51.930;4.492;2023-08-30T12:39:57;100524.31;;;25.56;37.52
79589;BME280;69067;51.930;4.492;2023-08-30T12:42:23;100537.28;;;25.61;37.40
79589;BME280;69067;51.930;4.492;2023-08-30T12:44:49;100540.84;;;25.61;37.59
79589;BME280;69067;51.930;4.492;2023-08-30T12:47:14;100541.72;;;25.55;37.92
79589;BME280;69067;51.930;4.492;2023-08-30T12:49:40;100534.78;;;25.59;37.40
79589;BME280;69067;51.930;4.492;2023-08-30T12:52:06;100542.63;;;25.49;37.94
79589;BME280;69067;51.930;4.492;2023-08-30T12:54:32;100542.16;;;25.52;37.35